Time;durP1;ratioP1;P1;durP2;ratioP2;P2;SDS_P1;SDS_P2;PMS_P1;PMS_P2;Temp;Humidity;BMP_temperature;BMP_pressure;BME280_temperature;BME280_humidity;BME280_pressure;Samples;Min_cycle;Max_cycle;Signal;HPM_P1;HPM_P2
2022/10/03 00:00:33;;;;;;;1999.90;999.90;;;11.90;99.90;;;;;;5063320;28;20443;-67
2022/10/03 00:03:25;;;;;;;1999.90;999.90;;;11.90;99.90;;;;;;5062016;28;20945;-66
2022/10/03 00:06:08;;;;;;;1999.90;999.90;;;11.90;99.90;;;;;;5048432;28;20499;-66
2022/10/03 00:09:09;;;;;;;1999.90;999.90;;;11.90;99.90;;;;;;5055462;28;20995;-66
2022/10/03 00:11:48;;;;;;;1999.90;999.90;;;12.00;99.90;;;;;;5051935;28;20848;-66
2022/10/03 00:14:23;;;;;;;1999.90;999.90;;;12.00;99.90;;;;;;5062773;28;20447;-66
2022/10/03 00:16:59;;;;;;;1999.90;999.90;;;12.10;99.90;;;;;;5048745;28;20486;-66
2022/10/03 00:19:35;;;;;;;1999.90;999.90;;;12.20;99.90;;;;;;5054084;28;20770;-66
2022/10/03 00:22:13;;;;;;;1999.90;999.90;;;12.20;99.90;;;;;;5046928;28;20468;-65
2022/10/03 00:25:00;;;;;;;1999.90;999.90;;;12.20;99.90;;;;;;5046484;28;21012;-66
2022/10/03 00:27:35;;;;;;;1999.90;999.90;;;12.20;99.90;;;;;;5053133;28;20455;-66
2022/10/03 00:30:13;;;;;;;1999.90;999.90;;;12.20;99.90;;;;;;5051140;28;20444;-66
2022/10/03 00:33:02;;;;;;;1999.90;999.90;;;12.10;99.90;;;;;;5046337;28;20513;-66
2022/10/03 00:35:43;;;;;;;1999.90;999.90;;;12.20;99.90;;;;;;5046933;28;20541;-66
2022/10/03 00:38:24;;;;;;;1999.90;999.90;;;12.20;99.90;;;;;;5061485;28;20581;-67
2022/10/03 00:41:09;;;;;;;1999.90;999.90;;;12.20;99.90;;;;;;5066353;28;20474;-66
2022/10/03 00:44:03;;;;;;;1999.90;999.90;;;12.20;99.90;;;;;;5066414;28;20459;-67
2022/10/03 00:46:51;;;;;;;1999.90;999.90;;;12.20;99.90;;;;;;5064793;28;20447;-67
2022/10/03 00:49:51;;;;;;;1999.90;999.90;;;12.20;99.90;;;;;;5051447;28;20443;-67
2022/10/03 00:52:57;;;;;;;1999.90;999.90;;;12.30;99.90;;;;;;5049633;28;20439;-67
2022/10/03 00:55:38;;;;;;;1999.90;999.90;;;12.30;99.90;;;;;;5054416;28;20458;-67
2022/10/03 00:58:43;;;;;;;1999.90;999.90;;;12.30;99.90;;;;;;5050130;28;20929;-67
2022/10/03 01:01:30;;;;;;;1999.90;999.90;;;12.40;99.90;;;;;;5055048;28;20458;-67
2022/10/03 01:04:12;;;;;;;1999.90;999.90;;;12.40;99.90;;;;;;5057522;28;20456;-67
2022/10/03 01:06:45;;;;;;;1999.90;999.90;;;12.30;99.90;;;;;;5050234;28;20929;-67
2022/10/03 01:09:36;;;;;;;1999.90;999.90;;;12.30;99.90;;;;;;5057481;28;20451;-67
2022/10/03 01:12:16;;;;;;;1999.90;999.90;;;12.30;99.90;;;;;;5047688;28;20672;-67
2022/10/03 01:15:06;;;;;;;1999.90;999.90;;;12.30;99.90;;;;;;5052257;28;20461;-67
2022/10/03 01:17:46;;;;;;;1999.90;999.90;;;12.30;99.90;;;;;;5060961;28;20743;-67
2022/10/03 01:20:26;;;;;;;1999.90;999.90;;;12.20;99.90;;;;;;5060419;28;20451;-68
2022/10/03 01:23:26;;;;;;;1999.90;999.90;;;12.10;99.90;;;;;;5059151;28;20529;-67
2022/10/03 01:26:04;;;;;;;1999.90;999.90;;;12.20;99.90;;;;;;5065558;28;20644;-67
2022/10/03 01:31:41;;;;;;;1999.90;999.90;;;12.20;99.90;;;;;;5056669;28;20830;-66
2022/10/03 01:34:16;;;;;;;1999.90;999.90;;;12.30;99.90;;;;;;5054682;28;20430;-66
2022/10/03 01:36:54;;;;;;;1999.90;999.90;;;12.40;99.90;;;;;;5058685;28;20953;-67
2022/10/03 01:39:27;;;;;;;1999.90;999.90;;;12.40;99.90;;;;;;5059967;28;20969;-67
2022/10/03 01:41:59;;;;;;;1999.90;999.90;;;12.40;99.90;;;;;;5058586;28;20471;-66
2022/10/03 01:44:39;;;;;;;1999.90;999.90;;;12.40;99.90;;;;;;5050027;28;20538;-67
2022/10/03 01:47:19;;;;;;;1999.90;999.90;;;12.40;99.90;;;;;;5053619;28;20448;-66
2022/10/03 01:49:53;;;;;;;1999.90;999.90;;;12.40;99.90;;;;;;5062051;28;20442;-67
2022/10/03 01:52:30;;;;;;;1999.90;999.90;;;12.40;99.90;;;;;;5050694;28;20448;-67
2022/10/03 01:55:05;;;;;;;1999.90;999.90;;;12.40;99.90;;;;;;5051009;28;20470;-67
2022/10/03 01:57:40;;;;;;;1999.90;999.90;;;12.40;99.90;;;;;;5056839;28;20485;-66
2022/10/03 02:00:13;;;;;;;1999.90;999.90;;;12.40;99.90;;;;;;5056132;28;20447;-66
2022/10/03 02:02:47;;;;;;;1999.90;999.90;;;12.40;99.90;;;;;;5051084;28;20452;-66
2022/10/03 02:05:20;;;;;;;1999.90;999.90;;;12.40;99.90;;;;;;5058743;28;20463;-66
2022/10/03 02:07:56;;;;;;;1999.90;999.90;;;12.40;99.90;;;;;;5072019;28;20818;-66
2022/10/03 02:10:33;;;;;;;1999.90;999.90;;;12.40;99.90;;;;;;5072099;28;20474;-66
2022/10/03 02:13:07;;;;;;;1999.90;999.90;;;12.40;99.90;;;;;;5071966;28;20447;-66
2022/10/03 02:15:53;;;;;;;1999.90;999.90;;;12.40;99.90;;;;;;5072642;28;20470;-66
2022/10/03 02:18:28;;;;;;;1999.90;999.90;;;12.40;99.90;;;;;;5072434;28;20601;-66
2022/10/03 02:21:08;;;;;;;1999.90;999.90;;;12.40;99.90;;;;;;5072532;28;20434;-66
2022/10/03 02:23:42;;;;;;;1999.90;999.90;;;12.40;99.90;;;;;;5052201;28;20444;-66
2022/10/03 02:26:55;;;;;;;1999.90;999.90;;;12.40;99.90;;;;;;5052546;28;20463;-66
2022/10/03 02:29:42;;;;;;;1999.90;999.90;;;12.30;99.90;;;;;;5063252;28;20486;-67
2022/10/03 02:32:46;;;;;;;1999.90;999.90;;;12.30;99.90;;;;;;5071717;28;20446;-67
2022/10/03 02:35:36;;;;;;;1999.90;999.90;;;12.30;99.90;;;;;;5070241;28;20467;-67
2022/10/03 02:38:23;;;;;;;1999.90;999.90;;;12.30;99.90;;;;;;5068480;28;20479;-67
2022/10/03 02:41:13;;;;;;;1999.90;999.90;;;12.30;99.90;;;;;;5067682;28;20450;-66
2022/10/03 02:44:14;;;;;;;1999.90;999.90;;;12.30;99.90;;;;;;5071628;28;20450;-67
2022/10/03 02:47:16;;;;;;;1999.90;999.90;;;12.20;99.90;;;;;;5071930;28;20816;-67
2022/10/03 02:50:34;;;;;;;1999.90;999.90;;;12.10;99.90;;;;;;5071708;28;20521;-67
2022/10/03 02:53:34;;;;;;;1999.90;999.90;;;12.00;99.90;;;;;;5069989;28;20941;-67
2022/10/03 02:56:27;;;;;;;1999.90;999.90;;;12.00;99.90;;;;;;5071543;28;20860;-67
2022/10/03 02:59:31;;;;;;;1999.90;999.90;;;12.00;99.90;;;;;;5071347;28;20475;-66
2022/10/03 03:02:31;;;;;;;1999.90;999.90;;;12.00;99.90;;;;;;5071141;28;20964;-66
2022/10/03 03:05:25;;;;;;;1999.90;999.90;;;11.90;99.90;;;;;;5065937;28;20471;-67
2022/10/03 03:08:24;;;;;;;1999.90;999.90;;;12.10;99.90;;;;;;5071519;28;20526;-67
2022/10/03 03:11:37;;;;;;;1999.90;999.90;;;12.10;99.90;;;;;;5071376;28;20856;-66
2022/10/03 03:14:38;;;;;;;1999.90;999.90;;;12.10;99.90;;;;;;5071305;28;20446;-66
2022/10/03 03:17:20;;;;;;;1999.90;999.90;;;12.10;99.90;;;;;;5071464;28;20445;-67
2022/10/03 03:20:07;;;;;;;1999.90;999.90;;;12.10;99.90;;;;;;5071003;28;20451;-66
2022/10/03 03:22:49;;;;;;;1999.90;999.90;;;12.10;99.90;;;;;;5071057;28;20451;-66
2022/10/03 03:25:37;;;;;;;1999.90;999.90;;;12.10;99.90;;;;;;5070932;28;20497;-66
2022/10/03 03:28:18;;;;;;;1999.90;999.90;;;12.20;99.90;;;;;;5060753;28;20466;-66
2022/10/03 03:30:55;;;;;;;1999.90;999.90;;;12.10;99.90;;;;;;5070948;28;20457;-66
2022/10/03 03:33:31;;;;;;;1999.90;999.90;;;12.10;99.90;;;;;;5050818;28;20455;-67
2022/10/03 03:36:06;;;;;;;1999.90;999.90;;;12.10;99.90;;;;;;5050730;28;20475;-67
2022/10/03 03:38:44;;;;;;;1999.90;999.90;;;12.10;99.90;;;;;;5060883;28;20572;-67
2022/10/03 03:41:26;;;;;;;1999.90;999.90;;;12.10;99.90;;;;;;5070930;28;20451;-67
2022/10/03 03:44:07;;;;;;;1999.90;999.90;;;12.10;99.90;;;;;;5070598;28;20443;-66
2022/10/03 03:46:48;;;;;;;1999.90;999.90;;;12.20;99.90;;;;;;5070680;28;20450;-67
2022/10/03 03:49:30;;;;;;;1999.90;999.90;;;12.20;99.90;;;;;;5070715;28;20442;-66
2022/10/03 03:52:12;;;;;;;1999.90;999.90;;;12.20;99.90;;;;;;5070351;28;20984;-66
2022/10/03 03:54:58;;;;;;;1999.90;999.90;;;12.30;99.90;;;;;;5070391;28;20467;-66
2022/10/03 03:57:45;;;;;;;1999.90;999.90;;;12.30;99.90;;;;;;5070668;28;20446;-66
2022/10/03 04:00:17;;;;;;;1999.90;999.90;;;12.30;99.90;;;;;;5070360;28;20952;-66
2022/10/03 04:02:57;;;;;;;1999.90;999.90;;;12.30;99.90;;;;;;5069969;28;20521;-66
2022/10/03 04:05:34;;;;;;;1999.90;999.90;;;12.30;99.90;;;;;;5070025;28;20471;-66
2022/10/03 04:08:25;;;;;;;1999.90;999.90;;;12.40;99.90;;;;;;5070536;28;20439;-66
2022/10/03 04:11:06;;;;;;;1999.90;999.90;;;12.40;99.90;;;;;;5070153;28;20474;-67
2022/10/03 04:13:46;;;;;;;1999.90;999.90;;;12.30;99.90;;;;;;5070051;28;20858;-66
2022/10/03 04:19:31;;;;;;;1999.90;999.90;;;12.30;99.90;;;;;;5070047;28;20482;-66
2022/10/03 04:22:28;;;;;;;1999.90;999.90;;;12.20;99.90;;;;;;5050250;28;20439;-67
2022/10/03 04:25:36;;;;;;;1999.90;999.90;;;12.20;99.90;;;;;;5046824;28;20522;-66
2022/10/03 04:28:33;;;;;;;1999.90;999.90;;;12.20;99.90;;;;;;5008108;28;20449;-67
2022/10/03 04:31:10;;;;;;;1999.90;999.90;;;12.10;99.90;;;;;;5059385;28;20509;-66
2022/10/03 04:33:53;;;;;;;1999.90;999.90;;;12.10;99.90;;;;;;5069786;28;20945;-67
2022/10/03 04:36:56;;;;;;;1999.90;999.90;;;12.00;99.90;;;;;;5069205;28;21054;-66
2022/10/03 04:39:32;;;;;;;1999.90;999.90;;;12.10;99.90;;;;;;5070071;28;20497;-66
2022/10/03 04:42:10;;;;;;;1999.90;999.90;;;12.00;99.90;;;;;;5049494;28;20440;-66
2022/10/03 04:44:53;;;;;;;1999.90;999.90;;;12.10;99.90;;;;;;5049783;28;20492;-66
2022/10/03 04:47:26;;;;;;;1999.90;999.90;;;12.10;99.90;;;;;;5049694;28;20456;-67
2022/10/03 04:50:01;;;;;;;1999.90;999.90;;;12.00;99.90;;;;;;5066176;28;20435;-66
2022/10/03 04:52:38;;;;;;;1999.90;999.90;;;12.10;99.90;;;;;;5069313;28;20454;-66
2022/10/03 04:55:26;;;;;;;1999.90;999.90;;;12.10;99.90;;;;;;5069571;28;20467;-67
2022/10/03 04:58:00;;;;;;;1999.90;999.90;;;12.00;99.90;;;;;;5069150;28;20447;-67
2022/10/03 05:00:34;;;;;;;1999.90;999.90;;;12.00;99.90;;;;;;5069722;28;20439;-66
2022/10/03 05:03:12;;;;;;;1999.90;999.90;;;12.10;99.90;;;;;;5069281;28;20446;-67
2022/10/03 05:05:51;;;;;;;1999.90;999.90;;;12.10;99.90;;;;;;5069513;28;20459;-66
2022/10/03 05:08:30;;;;;;;1999.90;999.90;;;12.20;99.90;;;;;;5069546;28;20445;-66
2022/10/03 05:11:12;;;;;;;1999.90;999.90;;;12.10;99.90;;;;;;5069436;28;20473;-66
2022/10/03 05:13:49;;;;;;;1999.90;999.90;;;12.10;99.90;;;;;;5069331;28;20450;-67
2022/10/03 05:16:28;;;;;;;1999.90;999.90;;;12.10;99.90;;;;;;5069259;28;20466;-66
2022/10/03 05:19:18;;;;;;;1999.90;999.90;;;12.10;99.90;;;;;;5069143;28;20524;-66
2022/10/03 05:21:54;;;;;;;1999.90;999.90;;;12.10;99.90;;;;;;5068903;28;20455;-66
2022/10/03 05:24:29;;;;;;;1999.90;999.90;;;12.10;99.90;;;;;;5069096;28;20817;-66
2022/10/03 05:27:02;;;;;;;1999.90;999.90;;;12.10;99.90;;;;;;5069139;28;20446;-66
2022/10/03 05:29:39;;;;;;;1999.90;999.90;;;12.00;99.90;;;;;;5069372;28;20495;-66
2022/10/03 05:32:19;;;;;;;1999.90;999.90;;;12.00;99.90;;;;;;5068984;28;20536;-67
2022/10/03 05:35:07;;;;;;;1999.90;999.90;;;12.00;99.90;;;;;;5068824;28;20489;-66
2022/10/03 05:38:12;;;;;;;1999.90;999.90;;;12.00;99.90;;;;;;5069451;28;20443;-66
2022/10/03 05:40:42;;;;;;;1999.90;999.90;;;12.10;99.90;;;;;;5063646;28;20443;-67
2022/10/03 05:43:22;;;;;;;1999.90;999.90;;;12.20;99.90;;;;;;5050605;28;20447;-66
2022/10/03 05:46:00;;;;;;;1999.90;999.90;;;12.20;99.90;;;;;;5061859;28;20473;-67
2022/10/03 05:48:40;;;;;;;1999.90;999.90;;;12.20;99.90;;;;;;5069121;28;20455;-67
2022/10/03 05:51:38;;;;;;;1999.90;999.90;;;12.10;99.90;;;;;;5068908;28;20449;-67
2022/10/03 05:54:42;;;;;;;1999.90;999.90;;;12.20;99.90;;;;;;5048881;28;21141;-66
2022/10/03 05:57:49;;;;;;;1999.90;999.90;;;12.20;99.90;;;;;;5057464;28;20450;-66
2022/10/03 06:00:20;;;;;;;1999.90;999.90;;;12.20;99.90;;;;;;5069076;28;20482;-66
2022/10/03 06:03:12;;;;;;;1999.90;999.90;;;12.10;99.90;;;;;;5068703;28;20447;-67
2022/10/03 06:06:11;;;;;;;1999.90;999.90;;;12.20;99.90;;;;;;5068598;28;20463;-67
2022/10/03 06:08:54;;;;;;;1999.90;999.90;;;12.10;99.90;;;;;;5066064;28;20447;-66
2022/10/03 06:11:40;;;;;;;1999.90;999.90;;;12.10;99.90;;;;;;5072281;28;20442;-66
2022/10/03 06:14:42;;;;;;;1999.90;999.90;;;12.20;99.90;;;;;;5072369;28;20446;-66
2022/10/03 06:17:31;;;;;;;1999.90;999.90;;;12.20;99.90;;;;;;5072480;28;20800;-67
2022/10/03 06:20:15;;;;;;;1999.90;999.90;;;12.20;99.90;;;;;;5059721;28;20486;-66
2022/10/03 06:23:16;;;;;;;1999.90;999.90;;;12.20;99.90;;;;;;5071993;28;20530;-66
2022/10/03 06:26:34;;;;;;;1999.90;999.90;;;12.20;99.90;;;;;;5069865;28;20987;-67
2022/10/03 06:29:34;;;;;;;1999.90;999.90;;;12.30;99.90;;;;;;5072618;28;20529;-66
2022/10/03 06:32:44;;;;;;;1999.90;999.90;;;12.30;99.90;;;;;;5072138;28;20548;-66
2022/10/03 06:35:40;;;;;;;1999.90;999.90;;;12.40;99.90;;;;;;5068499;28;20513;-66
2022/10/03 06:38:43;;;;;;;1999.90;999.90;;;12.40;99.90;;;;;;5071871;28;20447;-67
2022/10/03 06:41:44;;;;;;;1999.90;999.90;;;12.50;99.90;;;;;;5072083;28;20841;-66
2022/10/03 06:44:34;;;;;;;1999.90;999.90;;;12.50;99.90;;;;;;5071783;28;20861;-66
2022/10/03 06:47:21;;;;;;;1999.90;999.90;;;12.60;99.90;;;;;;5072241;28;20815;-67
2022/10/03 06:50:18;;;;;;;1999.90;999.90;;;12.50;99.90;;;;;;5071453;28;20513;-66
2022/10/03 06:53:15;;;;;;;1999.90;999.90;;;12.60;99.90;;;;;;5071517;28;20449;-66
2022/10/03 06:56:30;;;;;;;1999.90;999.90;;;12.60;99.90;;;;;;5071689;28;20459;-67
2022/10/03 06:59:37;;;;;;;1999.90;999.90;;;12.70;99.90;;;;;;5047232;28;20482;-66
2022/10/03 07:02:27;;;;;;;1999.90;999.90;;;12.70;99.90;;;;;;5062452;28;20458;-66
2022/10/03 07:05:35;;;;;;;1999.90;999.90;;;12.70;99.90;;;;;;5071349;28;20463;-66
2022/10/03 07:08:35;;;;;;;1999.90;999.90;;;12.70;99.90;;;;;;5071480;28;20454;-67
2022/10/03 07:11:14;;;;;;;1999.90;999.90;;;12.70;99.90;;;;;;5068696;28;20496;-67
2022/10/03 07:14:20;;;;;;;1999.90;999.90;;;12.70;99.90;;;;;;5071411;28;20458;-67
2022/10/03 07:17:21;;;;;;;1999.90;999.90;;;12.70;99.90;;;;;;5031026;28;20464;-66
2022/10/03 07:20:07;;;;;;;1999.90;999.90;;;12.60;99.90;;;;;;5050743;28;20476;-67
2022/10/03 07:23:07;;;;;;;1999.90;999.90;;;12.60;99.90;;;;;;5057804;28;20443;-66
2022/10/03 07:25:50;;;;;;;1999.90;999.90;;;12.60;99.90;;;;;;5067041;28;20825;-66
2022/10/03 07:28:56;;;;;;;1999.90;999.90;;;12.60;99.90;;;;;;5071188;28;20443;-66
2022/10/03 07:31:35;;;;;;;1999.90;999.90;;;12.60;99.90;;;;;;5070624;28;20458;-66
2022/10/03 07:34:44;;;;;;;1999.90;999.90;;;12.60;99.90;;;;;;5071053;28;20435;-66
2022/10/03 07:40:29;;;;;;;1999.90;999.90;;;13.00;99.90;;;;;;5051226;28;20479;-66
2022/10/03 07:43:30;;;;;;;1999.90;999.90;;;13.10;99.90;;;;;;5058203;28;20439;-66
2022/10/03 07:46:34;;;;;;;1999.90;999.90;;;13.30;99.90;;;;;;5067886;28;20536;-67
2022/10/03 07:49:17;;;;;;;1999.90;999.90;;;13.40;99.90;;;;;;5068574;28;20455;-67
2022/10/03 07:52:01;;;;;;;1999.90;999.90;;;13.50;99.90;;;;;;5056551;28;20439;-66
2022/10/03 07:55:04;;;;;;;1999.90;999.90;;;13.60;99.90;;;;;;5061187;28;20470;-66
2022/10/03 07:58:08;;;;;;;1999.90;999.90;;;13.80;99.90;;;;;;5050145;28;20484;-66
2022/10/03 08:00:49;;;;;;;1999.90;999.90;;;13.80;99.90;;;;;;5060598;28;20485;-67
2022/10/03 08:03:49;;;;;;;1999.90;999.90;;;13.70;99.90;;;;;;5069222;28;20447;-67
2022/10/03 08:06:25;;;;;;;1999.90;999.90;;;13.90;99.90;;;;;;5059500;28;20466;-66
2022/10/03 08:09:27;;;;;;;1999.90;999.90;;;13.70;99.90;;;;;;5056718;28;20451;-67
2022/10/03 08:12:18;;;;;;;1999.90;999.90;;;13.80;99.90;;;;;;5052486;28;20444;-66
2022/10/03 08:14:55;;;;;;;1999.90;999.90;;;13.70;99.90;;;;;;5057573;28;20475;-67
2022/10/03 08:17:53;;;;;;;1999.90;999.90;;;13.60;99.90;;;;;;5059966;28;20443;-66
2022/10/03 08:20:34;;;;;;;1999.90;999.90;;;13.40;99.90;;;;;;5061803;28;20479;-66
2022/10/03 08:23:19;;;;;;;1999.90;999.90;;;13.40;99.90;;;;;;5061690;28;20443;-66
2022/10/03 08:25:58;;;;;;;1999.90;999.90;;;13.40;99.90;;;;;;5065057;28;20467;-66
2022/10/03 08:28:52;;;;;;;1999.90;999.90;;;13.40;99.90;;;;;;5069474;28;20454;-66
2022/10/03 08:32:06;;;;;;;1999.90;999.90;;;13.50;99.90;;;;;;5068864;28;20439;-66
2022/10/03 08:35:02;;;;;;;1999.90;999.90;;;13.60;99.90;;;;;;5069745;28;20854;-66
2022/10/03 08:37:57;;;;;;;1999.90;999.90;;;13.80;99.90;;;;;;5070003;28;20792;-66
2022/10/03 08:40:58;;;;;;;1999.90;999.90;;;14.00;99.90;;;;;;5069683;28;20494;-66
2022/10/03 08:44:02;;;;;;;1999.90;999.90;;;13.90;99.90;;;;;;5069899;28;20477;-66
2022/10/03 08:47:13;;;;;;;1999.90;999.90;;;14.10;99.90;;;;;;5069659;28;20450;-66
2022/10/03 08:50:14;;;;;;;1999.90;999.90;;;14.30;99.90;;;;;;5020060;28;20450;-67
2022/10/03 08:52:59;;;;;;;1999.90;999.90;;;14.40;99.90;;;;;;5044386;28;20448;-67
2022/10/03 08:55:44;;;;;;;1999.90;999.90;;;14.50;99.90;;;;;;5059854;28;20550;-66
2022/10/03 08:58:43;;;;;;;1999.90;999.90;;;14.60;99.90;;;;;;5068540;28;20435;-67
2022/10/03 09:01:27;;;;;;;1999.90;999.90;;;14.90;99.90;;;;;;5069424;28;20441;-67
2022/10/03 09:04:36;;;;;;;1999.90;999.90;;;15.00;99.90;;;;;;5069695;28;20446;-67
2022/10/03 09:07:28;;;;;;;1999.90;999.90;;;14.90;99.90;;;;;;5033072;28;20447;-66
2022/10/03 09:10:34;;;;;;;1999.90;999.90;;;14.80;99.90;;;;;;5069558;28;20458;-67
2022/10/03 09:13:34;;;;;;;1999.90;999.90;;;14.80;99.90;;;;;;5063815;28;20455;-66
2022/10/03 09:16:30;;;;;;;1999.90;999.90;;;14.70;99.90;;;;;;5069170;28;20470;-66
2022/10/03 09:19:09;;;;;;;1999.90;999.90;;;14.90;99.90;;;;;;5069184;28;20442;-66
2022/10/03 09:22:14;;;;;;;1999.90;999.90;;;15.20;99.90;;;;;;5068839;28;20454;-67
2022/10/03 09:25:06;;;;;;;1999.90;999.90;;;15.60;99.90;;;;;;5058354;28;20471;-67
2022/10/03 09:27:53;;;;;;;1999.90;999.90;;;15.80;99.90;;;;;;5059321;28;20867;-67
2022/10/03 09:30:24;;;;;;;1999.90;999.90;;;15.90;99.90;;;;;;5055105;28;20451;-65
2022/10/03 09:33:28;;;;;;;1999.90;999.90;;;15.70;99.90;;;;;;5045962;28;20444;-65
2022/10/03 09:36:14;;;;;;;1999.90;999.90;;;15.80;99.90;;;;;;5052280;28;20868;-68
2022/10/03 09:38:59;;;;;;;1999.90;999.90;;;15.80;99.90;;;;;;5020922;28;20443;-68
2022/10/03 09:42:01;;;;;;;1999.90;999.90;;;15.70;99.90;;;;;;5053207;28;20446;-66
2022/10/03 09:44:54;;;;;;;1999.90;999.90;;;15.60;99.90;;;;;;5053305;28;20471;-66
2022/10/03 09:47:50;;;;;;;1999.90;999.90;;;15.80;99.90;;;;;;5047224;28;20456;-66
2022/10/03 09:51:05;;;;;;;1999.90;999.90;;;16.00;99.90;;;;;;5053951;28;20448;-65
2022/10/03 09:54:07;;;;;;;1999.90;999.90;;;16.20;99.90;;;;;;5023388;28;20459;-65
2022/10/03 09:56:56;;;;;;;1999.90;999.90;;;16.30;99.90;;;;;;5052827;28;20462;-66
2022/10/03 09:59:40;;;;;;;1999.90;999.90;;;16.10;99.90;;;;;;5028148;28;20498;-67
2022/10/03 10:02:29;;;;;;;1999.90;999.90;;;15.80;99.90;;;;;;5069159;28;20566;-66
2022/10/03 10:05:13;;;;;;;1999.90;999.90;;;15.40;99.90;;;;;;5063712;28;20838;-65
2022/10/03 10:08:08;;;;;;;1999.90;999.90;;;15.00;99.90;;;;;;5060246;28;21231;-65
2022/10/03 10:11:08;;;;;;;1999.90;999.90;;;15.00;99.90;;;;;;5068080;28;20447;-65
2022/10/03 10:14:13;;;;;;;1999.90;999.90;;;15.10;99.90;;;;;;5071603;28;20442;-65
2022/10/03 10:17:08;;;;;;;1999.90;999.90;;;15.30;99.90;;;;;;5037392;28;20460;-65
2022/10/03 10:19:54;;;;;;;1999.90;999.90;;;15.60;99.90;;;;;;5055408;28;20877;-66
2022/10/03 10:23:18;;;;;;;1999.90;999.90;;;16.20;99.90;;;;;;5055033;28;20444;-66
2022/10/03 10:26:18;;;;;;;1999.90;999.90;;;16.50;99.90;;;;;;5058376;28;20844;-65
2022/10/03 10:29:16;;;;;;;1999.90;999.90;;;16.00;99.90;;;;;;5051561;28;20455;-65
2022/10/03 10:32:22;;;;;;;1999.90;999.90;;;16.20;99.90;;;;;;5064497;28;20435;-65
2022/10/03 10:35:31;;;;;;;1999.90;999.90;;;16.20;99.90;;;;;;5038200;28;20479;-65
2022/10/03 10:38:27;;;;;;;1999.90;999.90;;;16.50;99.90;;;;;;5061403;28;20454;-65
2022/10/03 10:41:27;;;;;;;1999.90;999.90;;;16.50;99.90;;;;;;5061124;28;20476;-65
2022/10/03 10:44:23;;;;;;;1999.90;999.90;;;16.30;99.90;;;;;;5062859;28;20455;-65
2022/10/03 10:47:12;;;;;;;1999.90;999.90;;;16.30;99.90;;;;;;5054930;28;20451;-65
2022/10/03 10:50:20;;;;;;;1999.90;999.90;;;17.00;99.90;;;;;;5051228;28;20460;-65
2022/10/03 10:53:07;;;;;;;1999.90;999.90;;;17.30;99.90;;;;;;5066913;28;20461;-65
2022/10/03 10:56:22;;;;;;;1999.90;999.90;;;16.90;99.90;;;;;;5060207;28;20463;-65
2022/10/03 10:59:31;;;;;;;1999.90;999.90;;;16.50;99.90;;;;;;5064691;28;20455;-65
2022/10/03 11:02:50;;;;;;;1999.90;999.90;;;17.00;99.90;;;;;;5034816;28;20466;-65
2022/10/03 11:05:51;;;;;;;1999.90;999.90;;;17.40;99.90;;;;;;5004477;28;20549;-65
2022/10/03 11:08:55;;;;;;;1999.90;999.90;;;16.90;99.90;;;;;;4967721;28;20478;-65
2022/10/03 11:12:19;;;;;;;1999.90;999.90;;;16.30;99.90;;;;;;5053355;28;21034;-67
2022/10/03 11:15:46;;;;;;;1999.90;999.90;;;16.70;99.90;;;;;;5061425;28;20650;-66
2022/10/03 11:19:05;;;;;;;1999.90;999.90;;;17.50;99.90;;;;;;5067192;28;20447;-67
2022/10/03 11:22:22;;;;;;;1999.90;999.90;;;18.30;99.90;;;;;;5062501;28;20474;-67
2022/10/03 11:25:25;;;;;;;1999.90;999.90;;;18.50;99.90;;;;;;5062168;28;20468;-67
2022/10/03 11:28:38;;;;;;;1999.90;999.90;;;18.80;99.90;;;;;;5056011;28;20517;-67
2022/10/03 11:31:50;;;;;;;1999.90;999.90;;;19.90;99.90;;;;;;5054734;28;20469;-67
2022/10/03 11:34:56;;;;;;;1999.90;999.90;;;20.70;99.90;;;;;;5062360;28;20466;-66
2022/10/03 11:37:39;;;;;;;1999.90;999.90;;;21.20;99.90;;;;;;4989754;28;20450;-67
2022/10/03 11:40:21;;;;;;;1999.90;999.90;;;21.00;99.90;;;;;;5067855;28;20552;-67
2022/10/03 11:42:56;;;;;;;1999.90;999.90;;;19.80;99.90;;;;;;5068180;28;20810;-67
2022/10/03 11:45:32;;;;;;;1999.90;999.90;;;20.50;99.90;;;;;;5065799;28;20466;-67
2022/10/03 11:48:23;;;;;;;1999.90;999.90;;;21.40;99.90;;;;;;5068821;28;20438;-67
2022/10/03 11:50:53;;;;;;;1999.90;999.90;;;21.90;99.90;;;;;;5068671;28;20821;-67
2022/10/03 11:53:31;;;;;;;1999.90;999.90;;;20.50;99.90;;;;;;5069940;28;20439;-66
2022/10/03 11:56:26;;;;;;;1999.90;999.90;;;19.20;99.90;;;;;;5064523;28;20474;-66
2022/10/03 11:59:21;;;;;;;1999.90;999.90;;;18.50;99.90;;;;;;5069948;28;20439;-67
2022/10/03 12:02:05;;;;;;;1999.90;999.90;;;17.90;99.90;;;;;;5060625;28;20475;-67
2022/10/03 12:04:40;;;;;;;1999.90;999.90;;;17.50;99.90;;;;;;5063005;28;20477;-66
2022/10/03 12:10:07;;;;;;;1999.90;999.90;;;17.40;99.90;;;;;;5067500;28;20920;-66
2022/10/03 12:12:41;;;;;;;1999.90;999.90;;;17.20;99.90;;;;;;5069004;28;20956;-67
2022/10/03 12:15:23;;;;;;;1999.90;999.90;;;17.30;99.90;;;;;;5063607;28;20536;-67
2022/10/03 12:18:01;;;;;;;1999.90;999.90;;;17.40;99.90;;;;;;5057803;28;20443;-66
2022/10/03 12:20:37;;;;;;;1999.90;999.90;;;17.40;99.90;;;;;;5058013;28;20486;-67
2022/10/03 12:23:15;;;;;;;1999.90;999.90;;;17.70;99.90;;;;;;5063717;28;20474;-67
2022/10/03 12:25:45;;;;;;;1999.90;999.90;;;18.00;99.90;;;;;;5064618;28;20459;-66
2022/10/03 12:28:19;;;;;;;1999.90;999.90;;;18.60;99.90;;;;;;5056352;28;20452;-67
2022/10/03 12:30:52;;;;;;;1999.90;999.90;;;19.80;99.90;;;;;;5063846;28;20442;-66
2022/10/03 12:33:38;;;;;;;1999.90;999.90;;;22.00;99.90;;;;;;5059785;28;20828;-67
2022/10/03 12:36:14;;;;;;;1999.90;999.90;;;22.90;99.40;;;;;;5053976;28;21023;-67
2022/10/03 12:38:56;;;;;;;1999.90;999.90;;;23.00;97.10;;;;;;5064284;28;20904;-66
2022/10/03 12:41:35;;;;;;;1999.90;999.90;;;22.50;97.00;;;;;;5056011;28;20853;-66
2022/10/03 12:44:17;;;;;;;1999.90;999.90;;;22.60;97.50;;;;;;5054970;28;20458;-66
2022/10/03 12:46:53;;;;;;;1999.90;999.90;;;22.30;96.50;;;;;;5063366;28;20435;-66
2022/10/03 12:49:41;;;;;;;1999.90;999.90;;;22.20;96.00;;;;;;5050359;28;20467;-67
2022/10/03 12:52:18;;;;;;;1999.90;999.90;;;21.70;96.60;;;;;;5052165;28;20456;-67
2022/10/03 12:54:48;;;;;;;1999.90;999.90;;;23.00;96.50;;;;;;5057971;28;20964;-67
2022/10/03 12:57:50;;;;;;;1999.90;999.90;;;24.10;95.50;;;;;;5063410;28;20461;-67
2022/10/03 13:00:22;;;;;;;1999.90;999.90;;;25.40;94.30;;;;;;5059403;28;20498;-67
2022/10/03 13:03:06;;;;;;;1999.90;999.90;;;24.30;91.40;;;;;;5058180;28;20516;-66
2022/10/03 13:05:42;;;;;;;1999.90;999.90;;;23.30;92.10;;;;;;5054010;28;20467;-66
2022/10/03 13:08:27;;;;;;;1999.90;999.90;;;22.10;93.60;;;;;;5056525;28;20550;-67
2022/10/03 13:10:59;;;;;;;1999.90;999.90;;;20.90;95.10;;;;;;5059314;28;20528;-67
2022/10/03 13:13:32;;;;;;;1999.90;999.90;;;19.70;96.90;;;;;;5061176;28;20539;-66
2022/10/03 13:16:17;;;;;;;1999.90;999.90;;;18.70;97.80;;;;;;5054204;28;20478;-67
2022/10/03 13:18:51;;;;;;;1999.90;999.90;;;18.10;98.70;;;;;;5059194;28;20516;-67
2022/10/03 13:21:26;;;;;;;1999.90;999.90;;;17.50;99.90;;;;;;5063347;28;20510;-67
2022/10/03 13:23:57;;;;;;;1999.90;999.90;;;17.40;99.90;;;;;;5065684;28;21079;-66
2022/10/03 13:26:37;;;;;;;1999.90;999.90;;;17.30;99.30;;;;;;5059354;28;21033;-67
2022/10/03 13:29:24;;;;;;;1999.90;999.90;;;17.30;99.90;;;;;;5059597;28;20443;-67
2022/10/03 13:32:10;;;;;;;1999.90;999.90;;;17.40;99.90;;;;;;5056299;28;20834;-66
2022/10/03 13:34:54;;;;;;;1999.90;999.90;;;17.40;99.90;;;;;;5057611;28;22720;-67
2022/10/03 13:37:30;;;;;;;1999.90;999.90;;;17.40;99.90;;;;;;5058863;28;20485;-66
2022/10/03 13:40:05;;;;;;;1999.90;999.90;;;17.50;99.90;;;;;;5061742;28;20444;-66
2022/10/03 13:42:38;;;;;;;1999.90;999.90;;;17.20;99.90;;;;;;5060843;28;20458;-66
2022/10/03 13:45:12;;;;;;;1999.90;999.90;;;17.10;99.90;;;;;;5063461;28;20847;-65
2022/10/03 13:47:46;;;;;;;1999.90;999.90;;;17.00;99.90;;;;;;5072307;28;20446;-66
2022/10/03 13:50:18;;;;;;;1999.90;999.90;;;17.00;99.90;;;;;;5072371;28;20820;-66
2022/10/03 13:52:52;;;;;;;1999.90;999.90;;;17.10;99.90;;;;;;5069755;28;20971;-65